createdAt,value
2022-12-26T00:01:28.860Z,289.90
2022-12-26T00:06:30.067Z,289.90
2022-12-26T00:11:28.233Z,289.90
2022-12-26T00:16:26.898Z,289.90
2022-12-26T00:21:26.700Z,289.90
2022-12-26T00:26:24.897Z,289.90
2022-12-26T00:31:26.134Z,289.90
2022-12-26T00:36:22.378Z,289.90
2022-12-26T00:41:22.570Z,289.90
2022-12-26T00:46:23.820Z,289.90
2022-12-26T00:51:21.053Z,289.90
2022-12-26T00:56:20.268Z,289.90
2022-12-26T01:01:20.580Z,289.90
2022-12-26T01:06:18.708Z,289.90
2022-12-26T01:11:17.899Z,289.90
2022-12-26T01:16:17.109Z,289.90
2022-12-26T01:21:16.285Z,289.90
2022-12-26T01:26:20.322Z,289.90
2022-12-26T01:31:15.631Z,289.90
2022-12-26T01:36:13.805Z,289.90
2022-12-26T01:41:12.991Z,289.90
2022-12-26T01:46:12.154Z,289.90
2022-12-26T01:51:11.360Z,289.90
2022-12-26T01:56:10.532Z,289.90
2022-12-26T02:01:10.804Z,289.90
2022-12-26T02:06:09.849Z,289.90
2022-12-26T02:11:08.044Z,289.90
2022-12-26T02:16:07.440Z,382.20
2022-12-26T02:21:07.596Z,382.20
2022-12-26T02:26:06.883Z,382.20
2022-12-26T02:31:05.204Z,409.10
2022-12-26T02:36:03.579Z,407.90
2022-12-26T02:41:04.688Z,407.90
2022-12-26T02:46:04.041Z,435.50
2022-12-26T02:51:02.169Z,468.20
2022-12-26T02:56:01.490Z,452.40
2022-12-26T03:00:59.826Z,429.60
2022-12-26T03:05:59.979Z,431.80
2022-12-26T03:11:00.132Z,496.00
2022-12-26T03:15:58.456Z,445.80
2022-12-26T03:20:56.763Z,420.50
2022-12-26T03:25:59.088Z,411.90
2022-12-26T03:30:57.426Z,382.40
2022-12-26T03:35:55.634Z,369.60
2022-12-26T03:40:54.767Z,383.40
2022-12-26T03:45:56.199Z,396.30
2022-12-26T03:50:52.341Z,396.30
2022-12-26T03:55:52.658Z,396.30
2022-12-26T04:00:51.984Z,400.80
2022-12-26T04:05:52.301Z,408.70
2022-12-26T04:10:50.606Z,400.60
2022-12-26T04:15:49.964Z,411.20
2022-12-26T04:20:49.085Z,389.90
2022-12-26T04:25:51.460Z,418.00
2022-12-26T04:30:46.605Z,373.20
2022-12-26T04:35:47.713Z,293.00
2022-12-26T04:40:47.057Z,291.90
2022-12-26T04:45:45.185Z,291.90
2022-12-26T04:50:44.556Z,401.30
2022-12-26T04:55:43.701Z,407.80
2022-12-26T05:00:42.819Z,407.40
2022-12-26T05:05:44.169Z,421.30
2022-12-26T05:10:42.307Z,407.80
2022-12-26T05:15:41.632Z,407.00
2022-12-26T05:20:39.811Z,407.00
2022-12-26T05:25:39.037Z,407.00
2022-12-26T05:30:38.165Z,407.00
2022-12-26T05:35:37.364Z,407.00
2022-12-26T05:40:37.476Z,407.00
2022-12-26T05:45:36.780Z,407.00
2022-12-26T05:50:35.087Z,407.00
2022-12-26T05:55:36.407Z,407.00
2022-12-26T06:00:34.697Z,407.00
2022-12-26T06:05:33.120Z,407.00
2022-12-26T06:10:31.234Z,407.00
2022-12-26T06:15:31.585Z,407.00
2022-12-26T06:20:31.690Z,407.00
2022-12-26T06:25:29.950Z,407.00
2022-12-26T06:30:30.241Z,407.00
2022-12-26T06:35:28.538Z,407.00
2022-12-26T06:40:28.849Z,407.00
2022-12-26T06:45:28.148Z,407.00
2022-12-26T06:50:27.434Z,407.00
2022-12-26T06:55:25.630Z,407.00
2022-12-26T07:00:24.881Z,407.00
2022-12-26T07:05:24.058Z,407.00
2022-12-26T07:10:25.241Z,407.00
2022-12-26T07:15:23.479Z,407.00
2022-12-26T07:20:21.662Z,407.00
2022-12-26T07:25:20.855Z,407.00
2022-12-26T07:30:20.080Z,407.00
2022-12-26T07:35:19.280Z,407.00
2022-12-26T07:40:19.494Z,407.00
2022-12-26T07:45:18.751Z,407.00
2022-12-26T07:50:16.950Z,407.00
2022-12-26T07:55:17.137Z,407.00
2022-12-26T08:00:16.354Z,407.00
2022-12-26T08:05:14.600Z,407.00
2022-12-26T08:10:14.802Z,407.00
2022-12-26T08:15:32.010Z,407.00
2022-12-26T08:20:16.217Z,407.80
2022-12-26T08:25:16.716Z,430.60
2022-12-26T08:30:11.670Z,402.70
2022-12-26T08:35:09.978Z,411.30
2022-12-26T08:40:10.284Z,429.50
2022-12-26T08:45:08.579Z,423.10
2022-12-26T08:50:07.863Z,423.10
2022-12-26T08:55:07.167Z,422.60
2022-12-26T09:00:10.587Z,422.00
2022-12-26T09:05:06.663Z,430.60
2022-12-26T09:10:05.994Z,419.20
2022-12-26T09:15:05.301Z,415.70
2022-12-26T09:20:03.609Z,402.40
2022-12-26T09:25:02.976Z,418.70
2022-12-26T09:30:02.076Z,439.90
2022-12-26T09:35:02.388Z,433.00
2022-12-26T09:39:59.708Z,419.30
2022-12-26T09:45:00.937Z,414.20
2022-12-26T09:49:59.071Z,426.80
2022-12-26T09:54:58.202Z,319.00
2022-12-26T09:59:58.531Z,339.20
2022-12-26T10:04:56.918Z,422.80
2022-12-26T10:09:58.037Z,414.30
2022-12-26T10:14:55.367Z,393.40
2022-12-26T10:19:54.631Z,417.40
2022-12-26T10:24:53.741Z,411.40
2022-12-26T10:29:55.065Z,418.90
2022-12-26T10:34:54.364Z,418.20
2022-12-26T10:39:51.647Z,408.10
2022-12-26T10:44:51.985Z,395.00
2022-12-26T10:49:50.286Z,429.20
2022-12-26T10:54:50.597Z,419.70
2022-12-26T10:59:48.839Z,399.20
2022-12-26T11:05:15.585Z,413.40
2022-12-26T11:09:47.130Z,402.00
2022-12-26T11:14:46.428Z,304.50
2022-12-26T11:19:45.743Z,413.10
2022-12-26T11:24:45.058Z,429.20
2022-12-26T11:29:46.366Z,416.00
2022-12-26T11:34:43.635Z,388.10
2022-12-26T11:39:42.931Z,413.50
2022-12-26T11:44:43.242Z,419.40
2022-12-26T11:49:42.529Z,405.30
2022-12-26T11:54:40.810Z,286.10
2022-12-26T11:59:41.129Z,407.60
2022-12-26T12:04:40.362Z,439.30
2022-12-26T12:09:39.655Z,397.50
2022-12-26T12:14:38.986Z,405.20
2022-12-26T12:19:37.288Z,406.90
2022-12-26T12:24:36.410Z,415.10
2022-12-26T12:29:35.715Z,405.80
2022-12-26T12:34:34.851Z,424.60
2022-12-26T12:39:35.159Z,391.30
2022-12-26T12:44:33.468Z,388.60
2022-12-26T12:49:51.764Z,282.60
2022-12-26T12:54:32.977Z,346.70
2022-12-26T12:59:30.284Z,359.40
2022-12-26T13:04:30.582Z,380.30
2022-12-26T13:09:30.885Z,452.60
2022-12-26T13:14:29.298Z,412.50
2022-12-26T13:19:29.424Z,380.80
2022-12-26T13:24:28.746Z,414.70
2022-12-26T13:29:27.045Z,414.70
2022-12-26T13:34:26.381Z,414.70
2022-12-26T13:39:26.499Z,414.70
2022-12-26T13:44:25.793Z,414.70
2022-12-26T13:49:24.145Z,414.70
2022-12-26T13:54:23.313Z,414.70
2022-12-26T13:59:24.625Z,414.70
2022-12-26T14:04:22.854Z,414.70
2022-12-26T14:09:22.090Z,414.70
2022-12-26T14:14:21.288Z,414.70
2022-12-26T14:19:20.489Z,414.70
2022-12-26T14:24:19.672Z,414.70
2022-12-26T14:29:17.881Z,414.70
2022-12-26T14:34:17.064Z,414.70
2022-12-26T14:39:16.266Z,414.70
2022-12-26T14:44:17.464Z,414.70
2022-12-26T14:49:14.640Z,414.70
2022-12-26T14:54:13.843Z,414.70
2022-12-26T14:59:14.055Z,414.70
2022-12-26T15:04:12.212Z,414.70
2022-12-26T15:09:11.387Z,414.70
2022-12-26T15:14:10.535Z,414.70
2022-12-26T15:19:10.969Z,414.70
2022-12-26T15:24:09.910Z,414.70
2022-12-26T15:29:10.096Z,414.70
2022-12-26T15:34:06.274Z,414.70
2022-12-26T15:39:07.445Z,414.70
2022-12-26T15:44:05.606Z,414.70
2022-12-26T15:49:05.819Z,414.70
2022-12-26T15:54:04.959Z,414.70
2022-12-26T15:59:09.159Z,414.70
2022-12-26T16:04:02.321Z,414.70
2022-12-26T16:09:03.685Z,414.70
2022-12-26T16:14:15.628Z,414.70
2022-12-26T16:19:00.924Z,414.70
2022-12-26T16:24:01.134Z,414.70
2022-12-26T16:28:58.287Z,414.70
2022-12-26T16:33:57.461Z,414.70
2022-12-26T16:38:58.645Z,414.70
2022-12-26T16:43:55.792Z,414.70
2022-12-26T16:48:55.998Z,414.70
2022-12-26T16:53:54.212Z,414.70
2022-12-26T16:58:54.573Z,414.70
2022-12-26T17:03:52.578Z,414.70
2022-12-26T17:08:51.782Z,414.70
2022-12-26T17:13:51.013Z,414.70
2022-12-26T17:18:49.202Z,414.70
2022-12-26T17:23:49.402Z,414.70
2022-12-26T17:28:48.609Z,414.70
2022-12-26T17:33:48.798Z,414.70
2022-12-26T17:38:47.985Z,414.70
2022-12-26T17:43:46.386Z,414.70
2022-12-26T17:48:46.414Z,414.70
2022-12-26T17:53:44.693Z,414.70
2022-12-26T17:58:43.922Z,414.70
2022-12-26T18:03:43.110Z,414.70
2022-12-26T18:08:43.506Z,414.70
2022-12-26T18:13:43.635Z,414.70
2022-12-26T18:18:42.979Z,414.70
2022-12-26T18:23:39.989Z,414.70
2022-12-26T18:28:39.174Z,414.70
2022-12-26T18:33:38.467Z,414.70
2022-12-26T18:38:38.874Z,414.70
2022-12-26T18:43:36.906Z,414.70
2022-12-26T18:48:35.049Z,414.70
2022-12-26T18:53:35.284Z,414.70
2022-12-26T18:58:34.467Z,414.70
2022-12-26T19:03:33.666Z,414.70
2022-12-26T19:08:32.879Z,414.70
2022-12-26T19:13:32.058Z,414.70
2022-12-26T19:18:32.442Z,414.70
2022-12-26T19:23:30.482Z,414.70
2022-12-26T19:28:30.812Z,414.70
2022-12-26T19:33:29.838Z,414.70
2022-12-26T19:38:28.049Z,414.70
2022-12-26T19:43:26.241Z,414.70
2022-12-26T19:48:27.458Z,414.70
2022-12-26T19:53:25.646Z,414.70
2022-12-26T19:58:26.862Z,414.70
2022-12-26T20:03:24.290Z,414.70
2022-12-26T20:08:23.324Z,414.70
2022-12-26T20:13:22.585Z,414.70
2022-12-26T20:18:21.928Z,414.70
2022-12-26T20:23:20.926Z,414.70
2022-12-26T20:28:20.107Z,414.70
2022-12-26T20:33:20.273Z,414.70
2022-12-26T20:38:19.473Z,414.70
2022-12-26T20:43:17.634Z,414.70
2022-12-26T20:48:16.825Z,414.70
2022-12-26T20:53:16.989Z,414.70
2022-12-26T20:58:18.128Z,414.70
2022-12-26T21:03:14.622Z,414.70
2022-12-26T21:08:14.037Z,414.70
2022-12-26T21:13:13.071Z,414.70
2022-12-26T21:18:12.244Z,414.70
2022-12-26T21:23:13.648Z,414.70
2022-12-26T21:28:12.682Z,414.70
2022-12-26T21:33:09.886Z,414.70
2022-12-26T21:38:11.096Z,414.70
2022-12-26T21:43:08.281Z,414.70
2022-12-26T21:48:08.476Z,414.70
2022-12-26T21:53:07.660Z,414.70
2022-12-26T21:58:05.850Z,414.70
2022-12-26T22:03:06.053Z,414.70
2022-12-26T22:08:04.281Z,414.70
2022-12-26T22:13:04.519Z,414.70
2022-12-26T22:18:02.690Z,414.70
2022-12-26T22:23:01.878Z,414.70
2022-12-26T22:28:02.041Z,414.70
2022-12-26T22:33:00.200Z,414.70
2022-12-26T22:38:00.377Z,414.70
2022-12-26T22:42:58.551Z,414.70
2022-12-26T22:47:56.745Z,414.70
2022-12-26T22:52:57.914Z,414.70
2022-12-26T22:58:00.680Z,414.70
2022-12-26T23:02:56.514Z,414.70
2022-12-26T23:07:54.615Z,414.70
2022-12-26T23:12:53.784Z,414.70
2022-12-26T23:17:52.963Z,414.70
2022-12-26T23:22:52.133Z,414.70
2022-12-26T23:27:51.315Z,414.70
2022-12-26T23:32:50.494Z,414.70
2022-12-26T23:37:49.676Z,414.70
2022-12-26T23:42:48.882Z,414.70
2022-12-26T23:47:48.061Z,414.70
2022-12-26T23:52:47.247Z,414.70
2022-12-26T23:57:46.388Z,414.70
